sensor_id;sensor_type;location;lat;lon;timestamp;temperature;humidity
21498;DHT22;10910;50.932;0.246;2022-10-15T00:26:18;10.50;99.90
21498;DHT22;10910;50.932;0.246;2022-10-15T00:28:45;10.40;99.90
21498;DHT22;10910;50.932;0.246;2022-10-15T00:36:11;10.40;99.90
21498;DHT22;10910;50.932;0.246;2022-10-15T00:41:05;10.30;99.90
21498;DHT22;10910;50.932;0.246;2022-10-15T00:43:46;10.30;99.90
21498;DHT22;10910;50.932;0.246;2022-10-15T00:51:34;10.20;99.90
21498;DHT22;10910;50.932;0.246;2022-10-15T00:56:31;10.10;99.90
21498;DHT22;10910;50.932;0.246;2022-10-15T01:03:51;10.10;99.90
21498;DHT22;10910;50.932;0.246;2022-10-15T01:21:51;10.20;99.90
21498;DHT22;10910;50.932;0.246;2022-10-15T01:24:43;10.20;99.90
21498;DHT22;10910;50.932;0.246;2022-10-15T01:27:30;10.20;99.90
21498;DHT22;10910;50.932;0.246;2022-10-15T01:36:35;10.30;99.90
21498;DHT22;10910;50.932;0.246;2022-10-15T01:41:59;10.40;99.90
21498;DHT22;10910;50.932;0.246;2022-10-15T01:47:19;10.40;99.90
21498;DHT22;10910;50.932;0.246;2022-10-15T01:49:44;10.40;99.90
21498;DHT22;10910;50.932;0.246;2022-10-15T01:52:25;10.30;99.90
21498;DHT22;10910;50.932;0.246;2022-10-15T01:54:52;10.30;99.90
21498;DHT22;10910;50.932;0.246;2022-10-15T01:57:19;10.30;99.90
21498;DHT22;10910;50.932;0.246;2022-10-15T02:10:22;10.30;99.90
21498;DHT22;10910;50.932;0.246;2022-10-15T02:15:50;10.30;99.90
21498;DHT22;10910;50.932;0.246;2022-10-15T02:21:09;10.40;99.90
21498;DHT22;10910;50.932;0.246;2022-10-15T02:23:56;10.50;99.90
21498;DHT22;10910;50.932;0.246;2022-10-15T02:26:25;10.50;99.90
21498;DHT22;10910;50.932;0.246;2022-10-15T02:28:55;10.50;99.90
21498;DHT22;10910;50.932;0.246;2022-10-15T02:31:23;10.60;99.90
21498;DHT22;10910;50.932;0.246;2022-10-15T02:33:51;10.70;99.90
21498;DHT22;10910;50.932;0.246;2022-10-15T02:46:09;11.10;99.90
21498;DHT22;10910;50.932;0.246;2022-10-15T02:55:56;11.20;99.90
21498;DHT22;10910;50.932;0.246;2022-10-15T04:30:59;12.30;99.90
21498;DHT22;10910;50.932;0.246;2022-10-15T04:40:58;12.40;99.90
21498;DHT22;10910;50.932;0.246;2022-10-15T04:45:55;12.30;99.90
21498;DHT22;10910;50.932;0.246;2022-10-15T06:06:17;13.30;99.90
21498;DHT22;10910;50.932;0.246;2022-10-15T06:13:40;13.40;99.90
21498;DHT22;10910;50.932;0.246;2022-10-15T06:38:02;13.30;99.90
21498;DHT22;10910;50.932;0.246;2022-10-15T07:26:46;13.20;99.90
21498;DHT22;10910;50.932;0.246;2022-10-15T07:34:05;13.10;99.90
21498;DHT22;10910;50.932;0.246;2022-10-15T07:56:05;14.80;99.90
21498;DHT22;10910;50.932;0.246;2022-10-15T07:58:33;15.20;99.90
21498;DHT22;10910;50.932;0.246;2022-10-15T08:01:03;15.20;99.90
21498;DHT22;10910;50.932;0.246;2022-10-15T08:27:52;22.00;99.90
21498;DHT22;10910;50.932;0.246;2022-10-15T08:40:04;21.00;99.90
21498;DHT22;10910;50.932;0.246;2022-10-15T08:42:42;20.30;99.90
21498;DHT22;10910;50.932;0.246;2022-10-15T08:45:16;19.70;99.90
21498;DHT22;10910;50.932;0.246;2022-10-15T08:47:49;19.80;99.90
21498;DHT22;10910;50.932;0.246;2022-10-15T08:50:41;20.00;99.90
21498;DHT22;10910;50.932;0.246;2022-10-15T08:53:18;20.30;99.90
21498;DHT22;10910;50.932;0.246;2022-10-15T08:55:48;21.00;99.90
21498;DHT22;10910;50.932;0.246;2022-10-15T09:01:00;21.70;99.90
21498;DHT22;10910;50.932;0.246;2022-10-15T09:06:32;21.80;99.90
21498;DHT22;10910;50.932;0.246;2022-10-15T09:11:58;21.30;99.90
21498;DHT22;10910;50.932;0.246;2022-10-15T09:14:33;21.00;99.90
21498;DHT22;10910;50.932;0.246;2022-10-15T09:17:27;21.20;99.90
21498;DHT22;10910;50.932;0.246;2022-10-15T09:19:56;20.60;99.90
21498;DHT22;10910;50.932;0.246;2022-10-15T09:22:27;19.90;99.90
21498;DHT22;10910;50.932;0.246;2022-10-15T09:24:54;19.00;99.90
21498;DHT22;10910;50.932;0.246;2022-10-15T09:27:33;18.20;99.90
21498;DHT22;10910;50.932;0.246;2022-10-15T09:32:40;17.90;99.90
21498;DHT22;10910;50.932;0.246;2022-10-15T09:43:25;17.30;99.90
21498;DHT22;10910;50.932;0.246;2022-10-15T09:48:22;17.00;99.90
21498;DHT22;10910;50.932;0.246;2022-10-15T09:50:59;17.00;99.90
21498;DHT22;10910;50.932;0.246;2022-10-15T09:53:59;16.90;99.90
21498;DHT22;10910;50.932;0.246;2022-10-15T09:56:33;17.00;99.90
21498;DHT22;10910;50.932;0.246;2022-10-15T10:01:28;17.30;99.90
21498;DHT22;10910;50.932;0.246;2022-10-15T10:04:14;17.40;99.90
21498;DHT22;10910;50.932;0.246;2022-10-15T10:06:49;17.40;99.90
21498;DHT22;10910;50.932;0.246;2022-10-15T10:09:33;17.50;99.90
21498;DHT22;10910;50.932;0.246;2022-10-15T10:12:06;17.40;99.90
21498;DHT22;10910;50.932;0.246;2022-10-15T10:14:59;17.20;99.90
21498;DHT22;10910;50.932;0.246;2022-10-15T10:17:29;17.30;99.90
21498;DHT22;10910;50.932;0.246;2022-10-15T10:20:19;17.60;99.90
21498;DHT22;10910;50.932;0.246;2022-10-15T10:22:50;18.00;99.90
21498;DHT22;10910;50.932;0.246;2022-10-15T10:35:46;18.70;99.90
21498;DHT22;10910;50.932;0.246;2022-10-15T10:38:26;19.30;99.90
21498;DHT22;10910;50.932;0.246;2022-10-15T10:43:39;21.00;99.90
21498;DHT22;10910;50.932;0.246;2022-10-15T10:54:03;21.60;99.90
21498;DHT22;10910;50.932;0.246;2022-10-15T10:56:39;21.60;99.90
21498;DHT22;10910;50.932;0.246;2022-10-15T10:59:34;22.00;99.90
21498;DHT22;10910;50.932;0.246;2022-10-15T11:04:33;20.50;99.90
21498;DHT22;10910;50.932;0.246;2022-10-15T11:15:52;21.60;99.90
21498;DHT22;10910;50.932;0.246;2022-10-15T11:21:07;22.20;99.90
21498;DHT22;10910;50.932;0.246;2022-10-15T11:36:43;22.30;99.90
21498;DHT22;10910;50.932;0.246;2022-10-15T11:55:31;21.50;99.90
21498;DHT22;10910;50.932;0.246;2022-10-15T11:58:05;22.30;99.90
21498;DHT22;10910;50.932;0.246;2022-10-15T12:00:48;21.80;99.90
21498;DHT22;10910;50.932;0.246;2022-10-15T12:03:21;20.10;99.90
21498;DHT22;10910;50.932;0.246;2022-10-15T12:06:15;19.50;99.90
21498;DHT22;10910;50.932;0.246;2022-10-15T12:08:42;19.40;99.90
21498;DHT22;10910;50.932;0.246;2022-10-15T12:14:17;18.90;99.90
21498;DHT22;10910;50.932;0.246;2022-10-15T12:27:35;14.30;99.90
21498;DHT22;10910;50.932;0.246;2022-10-15T12:32:29;14.10;99.90
21498;DHT22;10910;50.932;0.246;2022-10-15T12:35:06;14.00;99.90
21498;DHT22;10910;50.932;0.246;2022-10-15T12:37:44;14.00;99.90
21498;DHT22;10910;50.932;0.246;2022-10-15T12:42:49;14.00;99.90
21498;DHT22;10910;50.932;0.246;2022-10-15T12:47:54;14.00;99.90
21498;DHT22;10910;50.932;0.246;2022-10-15T12:56:11;14.50;99.90
21498;DHT22;10910;50.932;0.246;2022-10-15T13:11:24;15.60;99.90
21498;DHT22;10910;50.932;0.246;2022-10-15T13:13:58;15.70;99.90
21498;DHT22;10910;50.932;0.246;2022-10-15T13:18:52;15.40;99.90
21498;DHT22;10910;50.932;0.246;2022-10-15T13:26:22;15.20;99.90
21498;DHT22;10910;50.932;0.246;2022-10-15T13:28:50;15.30;99.90
21498;DHT22;10910;50.932;0.246;2022-10-15T13:33:53;15.60;99.90
21498;DHT22;10910;50.932;0.246;2022-10-15T13:39:06;15.90;99.90
21498;DHT22;10910;50.932;0.246;2022-10-15T13:41:37;16.10;99.90
21498;DHT22;10910;50.932;0.246;2022-10-15T13:46:35;16.30;99.90
21498;DHT22;10910;50.932;0.246;2022-10-15T13:49:09;16.70;99.90
21498;DHT22;10910;50.932;0.246;2022-10-15T13:51:42;17.00;99.90
21498;DHT22;10910;50.932;0.246;2022-10-15T13:56:42;17.60;99.90
21498;DHT22;10910;50.932;0.246;2022-10-15T13:59:16;18.50;99.90
21498;DHT22;10910;50.932;0.246;2022-10-15T14:01:48;18.50;99.90
21498;DHT22;10910;50.932;0.246;2022-10-15T14:04:18;18.50;99.90
21498;DHT22;10910;50.932;0.246;2022-10-15T14:09:24;18.20;99.90
21498;DHT22;10910;50.932;0.246;2022-10-15T14:11:53;18.00;99.90
21498;DHT22;10910;50.932;0.246;2022-10-15T14:14:53;17.80;99.90
21498;DHT22;10910;50.932;0.246;2022-10-15T14:20:05;17.60;99.90
21498;DHT22;10910;50.932;0.246;2022-10-15T14:24:58;17.20;99.90
21498;DHT22;10910;50.932;0.246;2022-10-15T14:27:25;17.00;99.90
21498;DHT22;10910;50.932;0.246;2022-10-15T14:29:54;16.90;99.90
21498;DHT22;10910;50.932;0.246;2022-10-15T14:32:31;16.40;99.90
21498;DHT22;10910;50.932;0.246;2022-10-15T14:35:37;16.00;99.90
21498;DHT22;10910;50.932;0.246;2022-10-15T14:38:24;15.90;99.90
21498;DHT22;10910;50.932;0.246;2022-10-15T14:43:34;16.30;99.90
21498;DHT22;10910;50.932;0.246;2022-10-15T14:46:01;16.50;99.90
21498;DHT22;10910;50.932;0.246;2022-10-15T14:48:32;16.20;99.90
21498;DHT22;10910;50.932;0.246;2022-10-15T14:51:00;16.10;99.90
21498;DHT22;10910;50.932;0.246;2022-10-15T14:58:25;16.00;99.90
21498;DHT22;10910;50.932;0.246;2022-10-15T15:03:30;16.30;99.90
21498;DHT22;10910;50.932;0.246;2022-10-15T15:05:56;16.30;99.90
21498;DHT22;10910;50.932;0.246;2022-10-15T15:08:23;16.30;99.90
21498;DHT22;10910;50.932;0.246;2022-10-15T15:10:50;16.50;99.90
21498;DHT22;10910;50.932;0.246;2022-10-15T15:13:25;17.00;99.90
21498;DHT22;10910;50.932;0.246;2022-10-15T15:20:44;18.20;99.90
21498;DHT22;10910;50.932;0.246;2022-10-15T15:23:25;18.40;99.90
21498;DHT22;10910;50.932;0.246;2022-10-15T15:28:19;18.00;99.90
21498;DHT22;10910;50.932;0.246;2022-10-15T15:30:49;17.60;99.90
21498;DHT22;10910;50.932;0.246;2022-10-15T15:35:51;17.10;99.90
21498;DHT22;10910;50.932;0.246;2022-10-15T16:05:14;16.60;99.90
21498;DHT22;10910;50.932;0.246;2022-10-15T16:49:07;15.40;99.90
21498;DHT22;10910;50.932;0.246;2022-10-15T16:56:27;15.30;99.90
21498;DHT22;10910;50.932;0.246;2022-10-15T17:01:23;15.10;99.90
21498;DHT22;10910;50.932;0.246;2022-10-15T17:06:21;15.00;99.90
21498;DHT22;10910;50.932;0.246;2022-10-15T17:13:54;14.90;99.90
21498;DHT22;10910;50.932;0.246;2022-10-15T17:16:22;15.00;99.90
21498;DHT22;10910;50.932;0.246;2022-10-15T17:18:49;14.90;99.90
21498;DHT22;10910;50.932;0.246;2022-10-15T17:21:21;14.90;99.90
21498;DHT22;10910;50.932;0.246;2022-10-15T17:23:49;14.90;99.90
21498;DHT22;10910;50.932;0.246;2022-10-15T17:26:17;14.90;99.90
21498;DHT22;10910;50.932;0.246;2022-10-15T17:31:13;14.90;99.90
21498;DHT22;10910;50.932;0.246;2022-10-15T17:33:40;14.90;99.90
21498;DHT22;10910;50.932;0.246;2022-10-15T17:41:05;15.00;99.90
21498;DHT22;10910;50.932;0.246;2022-10-15T17:46:02;15.00;99.90
21498;DHT22;10910;50.932;0.246;2022-10-15T18:54:19;14.80;99.90
21498;DHT22;10910;50.932;0.246;2022-10-15T19:01:41;14.60;99.90
21498;DHT22;10910;50.932;0.246;2022-10-15T19:06:41;14.40;99.90
21498;DHT22;10910;50.932;0.246;2022-10-15T19:09:10;14.50;99.90
21498;DHT22;10910;50.932;0.246;2022-10-15T19:14:03;14.40;99.90
21498;DHT22;10910;50.932;0.246;2022-10-15T19:26:14;14.30;99.90
21498;DHT22;10910;50.932;0.246;2022-10-15T19:36:00;14.40;99.90
21498;DHT22;10910;50.932;0.246;2022-10-15T19:43:20;14.40;99.90
21498;DHT22;10910;50.932;0.246;2022-10-15T19:48:15;14.40;99.90
21498;DHT22;10910;50.932;0.246;2022-10-15T20:47:09;14.70;99.90
21498;DHT22;10910;50.932;0.246;2022-10-15T20:49:40;14.70;99.90
21498;DHT22;10910;50.932;0.246;2022-10-15T21:11:41;14.90;99.90
21498;DHT22;10910;50.932;0.246;2022-10-15T21:16:39;14.90;99.90
21498;DHT22;10910;50.932;0.246;2022-10-15T21:28:57;14.80;99.90
21498;DHT22;10910;50.932;0.246;2022-10-15T21:36:24;14.80;99.90
21498;DHT22;10910;50.932;0.246;2022-10-15T21:38:55;14.80;99.90
21498;DHT22;10910;50.932;0.246;2022-10-15T21:48:41;14.70;99.90
21498;DHT22;10910;50.932;0.246;2022-10-15T21:51:12;14.70;99.90
21498;DHT22;10910;50.932;0.246;2022-10-15T22:01:10;14.60;99.90
21498;DHT22;10910;50.932;0.246;2022-10-15T23:14:15;15.10;99.90
21498;DHT22;10910;50.932;0.246;2022-10-15T23:16:45;14.90;99.90
21498;DHT22;10910;50.932;0.246;2022-10-15T23:19:17;14.60;99.90
21498;DHT22;10910;50.932;0.246;2022-10-15T23:26:38;14.00;99.90
21498;DHT22;10910;50.932;0.246;2022-10-15T23:29:05;13.90;99.90
21498;DHT22;10910;50.932;0.246;2022-10-15T23:31:33;13.80;99.90
21498;DHT22;10910;50.932;0.246;2022-10-15T23:34:00;13.80;99.90
21498;DHT22;10910;50.932;0.246;2022-10-15T23:36:27;13.80;99.90
21498;DHT22;10910;50.932;0.246;2022-10-15T23:51:21;13.80;99.90
